sensor_id;sensor_type;location;lat;lon;timestamp;P1;durP1;ratioP1;P2;durP2;ratioP2
21258;SDS011;10787;53.364;-1.480;2024-01-15T00:01:53;1.63;;;0.70;;
21258;SDS011;10787;53.364;-1.480;2024-01-15T00:04:37;3.20;;;0.97;;
21258;SDS011;10787;53.364;-1.480;2024-01-15T00:07:24;1.13;;;0.57;;
21258;SDS011;10787;53.364;-1.480;2024-01-15T00:10:09;2.63;;;0.80;;
21258;SDS011;10787;53.364;-1.480;2024-01-15T00:12:53;1.87;;;0.77;;
21258;SDS011;10787;53.364;-1.480;2024-01-15T00:15:37;1.50;;;0.67;;
21258;SDS011;10787;53.364;-1.480;2024-01-15T00:18:22;2.00;;;0.70;;
21258;SDS011;10787;53.364;-1.480;2024-01-15T00:21:06;2.10;;;0.70;;
21258;SDS011;10787;53.364;-1.480;2024-01-15T00:23:51;1.70;;;0.63;;
21258;SDS011;10787;53.364;-1.480;2024-01-15T00:26:35;2.17;;;0.70;;
21258;SDS011;10787;53.364;-1.480;2024-01-15T00:29:20;1.17;;;0.60;;
21258;SDS011;10787;53.364;-1.480;2024-01-15T00:32:04;1.80;;;0.70;;
21258;SDS011;10787;53.364;-1.480;2024-01-15T00:34:49;3.17;;;0.90;;
21258;SDS011;10787;53.364;-1.480;2024-01-15T00:37:34;1.20;;;0.60;;
21258;SDS011;10787;53.364;-1.480;2024-01-15T00:40:18;2.77;;;0.90;;
21258;SDS011;10787;53.364;-1.480;2024-01-15T00:43:02;2.13;;;0.70;;
21258;SDS011;10787;53.364;-1.480;2024-01-15T00:45:46;2.50;;;0.70;;
21258;SDS011;10787;53.364;-1.480;2024-01-15T00:48:31;2.00;;;0.93;;
21258;SDS011;10787;53.364;-1.480;2024-01-15T00:51:16;3.97;;;0.80;;
21258;SDS011;10787;53.364;-1.480;2024-01-15T00:54:00;1.77;;;0.70;;
21258;SDS011;10787;53.364;-1.480;2024-01-15T00:56:44;3.53;;;0.70;;
21258;SDS011;10787;53.364;-1.480;2024-01-15T00:59:28;3.53;;;0.90;;
21258;SDS011;10787;53.364;-1.480;2024-01-15T01:02:13;2.17;;;0.80;;
21258;SDS011;10787;53.364;-1.480;2024-01-15T01:04:57;2.73;;;0.80;;
21258;SDS011;10787;53.364;-1.480;2024-01-15T01:07:42;1.67;;;0.67;;
21258;SDS011;10787;53.364;-1.480;2024-01-15T01:10:26;1.43;;;0.70;;
21258;SDS011;10787;53.364;-1.480;2024-01-15T01:13:11;1.37;;;0.60;;
21258;SDS011;10787;53.364;-1.480;2024-01-15T01:15:55;2.30;;;0.70;;
21258;SDS011;10787;53.364;-1.480;2024-01-15T01:18:39;2.00;;;0.80;;
21258;SDS011;10787;53.364;-1.480;2024-01-15T01:21:23;1.30;;;0.60;;
21258;SDS011;10787;53.364;-1.480;2024-01-15T01:24:08;1.00;;;0.60;;
21258;SDS011;10787;53.364;-1.480;2024-01-15T01:26:52;3.40;;;0.70;;
21258;SDS011;10787;53.364;-1.480;2024-01-15T01:29:36;0.73;;;0.50;;
21258;SDS011;10787;53.364;-1.480;2024-01-15T01:32:21;1.10;;;0.50;;
21258;SDS011;10787;53.364;-1.480;2024-01-15T01:35:05;1.00;;;0.60;;
21258;SDS011;10787;53.364;-1.480;2024-01-15T01:37:49;3.13;;;0.63;;
21258;SDS011;10787;53.364;-1.480;2024-01-15T01:40:33;2.90;;;0.60;;
21258;SDS011;10787;53.364;-1.480;2024-01-15T01:43:18;1.47;;;0.50;;
21258;SDS011;10787;53.364;-1.480;2024-01-15T01:46:03;1.83;;;0.70;;
21258;SDS011;10787;53.364;-1.480;2024-01-15T01:48:48;3.00;;;0.60;;
21258;SDS011;10787;53.364;-1.480;2024-01-15T01:51:33;1.13;;;0.50;;
21258;SDS011;10787;53.364;-1.480;2024-01-15T01:54:19;2.43;;;0.63;;
21258;SDS011;10787;53.364;-1.480;2024-01-15T01:57:04;2.43;;;0.60;;
21258;SDS011;10787;53.364;-1.480;2024-01-15T01:59:49;3.03;;;0.60;;
21258;SDS011;10787;53.364;-1.480;2024-01-15T02:02:35;0.90;;;0.50;;
21258;SDS011;10787;53.364;-1.480;2024-01-15T02:05:19;2.10;;;0.80;;
21258;SDS011;10787;53.364;-1.480;2024-01-15T02:08:05;1.67;;;0.60;;
21258;SDS011;10787;53.364;-1.480;2024-01-15T02:10:49;1.87;;;0.60;;
21258;SDS011;10787;53.364;-1.480;2024-01-15T02:13:34;3.13;;;0.63;;
21258;SDS011;10787;53.364;-1.480;2024-01-15T02:16:18;3.50;;;0.73;;
21258;SDS011;10787;53.364;-1.480;2024-01-15T02:19:02;1.33;;;0.50;;
21258;SDS011;10787;53.364;-1.480;2024-01-15T02:21:46;1.77;;;0.60;;
21258;SDS011;10787;53.364;-1.480;2024-01-15T02:24:31;2.30;;;0.70;;
21258;SDS011;10787;53.364;-1.480;2024-01-15T02:27:16;3.70;;;0.80;;
21258;SDS011;10787;53.364;-1.480;2024-01-15T02:30:00;1.47;;;0.50;;
21258;SDS011;10787;53.364;-1.480;2024-01-15T02:32:46;2.17;;;0.70;;
21258;SDS011;10787;53.364;-1.480;2024-01-15T02:35:30;0.77;;;0.47;;
21258;SDS011;10787;53.364;-1.480;2024-01-15T02:38:15;1.87;;;0.50;;
21258;SDS011;10787;53.364;-1.480;2024-01-15T02:40:59;4.77;;;0.80;;
21258;SDS011;10787;53.364;-1.480;2024-01-15T02:43:44;1.93;;;0.80;;
21258;SDS011;10787;53.364;-1.480;2024-01-15T02:46:28;3.00;;;0.73;;
21258;SDS011;10787;53.364;-1.480;2024-01-15T02:49:12;4.10;;;0.60;;
21258;SDS011;10787;53.364;-1.480;2024-01-15T02:51:57;3.90;;;0.83;;
21258;SDS011;10787;53.364;-1.480;2024-01-15T02:54:41;1.50;;;0.60;;
21258;SDS011;10787;53.364;-1.480;2024-01-15T02:57:26;2.27;;;0.47;;
21258;SDS011;10787;53.364;-1.480;2024-01-15T03:00:10;0.80;;;0.40;;
21258;SDS011;10787;53.364;-1.480;2024-01-15T03:02:55;2.37;;;0.50;;
21258;SDS011;10787;53.364;-1.480;2024-01-15T03:05:40;2.10;;;0.50;;
21258;SDS011;10787;53.364;-1.480;2024-01-15T03:08:24;2.30;;;0.60;;
21258;SDS011;10787;53.364;-1.480;2024-01-15T03:11:09;2.50;;;0.50;;
21258;SDS011;10787;53.364;-1.480;2024-01-15T03:13:53;3.27;;;0.60;;
21258;SDS011;10787;53.364;-1.480;2024-01-15T03:16:37;1.67;;;0.50;;
21258;SDS011;10787;53.364;-1.480;2024-01-15T03:19:21;1.40;;;0.50;;
21258;SDS011;10787;53.364;-1.480;2024-01-15T03:22:06;2.00;;;0.47;;
21258;SDS011;10787;53.364;-1.480;2024-01-15T03:24:52;1.53;;;0.43;;
21258;SDS011;10787;53.364;-1.480;2024-01-15T03:27:37;4.77;;;0.60;;
21258;SDS011;10787;53.364;-1.480;2024-01-15T03:30:37;3.13;;;0.53;;
21258;SDS011;10787;53.364;-1.480;2024-01-15T03:33:21;3.83;;;0.50;;
21258;SDS011;10787;53.364;-1.480;2024-01-15T03:36:06;1.47;;;0.47;;
21258;SDS011;10787;53.364;-1.480;2024-01-15T03:38:51;3.07;;;0.50;;
21258;SDS011;10787;53.364;-1.480;2024-01-15T03:41:36;2.63;;;0.50;;
21258;SDS011;10787;53.364;-1.480;2024-01-15T03:44:20;3.20;;;0.50;;
21258;SDS011;10787;53.364;-1.480;2024-01-15T03:47:04;1.20;;;0.60;;
21258;SDS011;10787;53.364;-1.480;2024-01-15T03:49:49;1.93;;;0.40;;
21258;SDS011;10787;53.364;-1.480;2024-01-15T03:52:33;4.30;;;0.50;;
21258;SDS011;10787;53.364;-1.480;2024-01-15T03:55:17;2.27;;;0.30;;
21258;SDS011;10787;53.364;-1.480;2024-01-15T03:58:01;2.43;;;0.40;;
21258;SDS011;10787;53.364;-1.480;2024-01-15T04:00:45;4.60;;;0.50;;
21258;SDS011;10787;53.364;-1.480;2024-01-15T04:03:30;2.40;;;0.30;;
21258;SDS011;10787;53.364;-1.480;2024-01-15T04:06:14;2.90;;;0.40;;
21258;SDS011;10787;53.364;-1.480;2024-01-15T04:08:58;1.40;;;0.40;;
21258;SDS011;10787;53.364;-1.480;2024-01-15T04:11:42;1.10;;;0.30;;
21258;SDS011;10787;53.364;-1.480;2024-01-15T04:14:26;2.07;;;0.30;;
21258;SDS011;10787;53.364;-1.480;2024-01-15T04:17:12;0.90;;;0.40;;
21258;SDS011;10787;53.364;-1.480;2024-01-15T04:19:57;2.57;;;0.40;;
21258;SDS011;10787;53.364;-1.480;2024-01-15T04:22:41;1.07;;;0.40;;
21258;SDS011;10787;53.364;-1.480;2024-01-15T04:25:27;1.87;;;0.30;;
21258;SDS011;10787;53.364;-1.480;2024-01-15T04:28:12;1.40;;;0.30;;
21258;SDS011;10787;53.364;-1.480;2024-01-15T04:30:56;1.23;;;0.27;;
21258;SDS011;10787;53.364;-1.480;2024-01-15T04:33:40;1.23;;;0.40;;
21258;SDS011;10787;53.364;-1.480;2024-01-15T04:36:24;3.53;;;0.40;;
21258;SDS011;10787;53.364;-1.480;2024-01-15T04:39:09;1.83;;;0.40;;
21258;SDS011;10787;53.364;-1.480;2024-01-15T04:41:55;0.70;;;0.30;;
21258;SDS011;10787;53.364;-1.480;2024-01-15T04:44:39;2.30;;;0.33;;
21258;SDS011;10787;53.364;-1.480;2024-01-15T04:47:23;1.10;;;0.40;;
21258;SDS011;10787;53.364;-1.480;2024-01-15T04:50:08;1.23;;;0.30;;
21258;SDS011;10787;53.364;-1.480;2024-01-15T04:52:52;1.20;;;0.30;;
21258;SDS011;10787;53.364;-1.480;2024-01-15T04:55:37;1.57;;;0.20;;
21258;SDS011;10787;53.364;-1.480;2024-01-15T04:58:21;1.40;;;0.30;;
21258;SDS011;10787;53.364;-1.480;2024-01-15T05:01:08;1.23;;;0.40;;
21258;SDS011;10787;53.364;-1.480;2024-01-15T05:03:53;2.63;;;0.50;;
21258;SDS011;10787;53.364;-1.480;2024-01-15T05:06:38;0.57;;;0.30;;
21258;SDS011;10787;53.364;-1.480;2024-01-15T05:09:22;1.93;;;0.50;;
21258;SDS011;10787;53.364;-1.480;2024-01-15T05:12:06;1.57;;;0.30;;
21258;SDS011;10787;53.364;-1.480;2024-01-15T05:14:50;2.00;;;0.40;;
21258;SDS011;10787;53.364;-1.480;2024-01-15T05:17:34;3.37;;;0.40;;
21258;SDS011;10787;53.364;-1.480;2024-01-15T05:20:18;1.80;;;0.30;;
21258;SDS011;10787;53.364;-1.480;2024-01-15T05:23:03;1.13;;;0.37;;
21258;SDS011;10787;53.364;-1.480;2024-01-15T05:25:47;1.30;;;0.50;;
21258;SDS011;10787;53.364;-1.480;2024-01-15T05:28:32;1.57;;;0.40;;
21258;SDS011;10787;53.364;-1.480;2024-01-15T05:31:16;1.47;;;0.30;;
21258;SDS011;10787;53.364;-1.480;2024-01-15T05:34:00;0.80;;;0.30;;
21258;SDS011;10787;53.364;-1.480;2024-01-15T05:36:44;1.63;;;0.30;;
21258;SDS011;10787;53.364;-1.480;2024-01-15T05:39:30;0.67;;;0.30;;
21258;SDS011;10787;53.364;-1.480;2024-01-15T05:42:14;1.73;;;0.50;;
21258;SDS011;10787;53.364;-1.480;2024-01-15T05:44:58;0.30;;;0.20;;
21258;SDS011;10787;53.364;-1.480;2024-01-15T05:47:43;1.60;;;0.30;;
21258;SDS011;10787;53.364;-1.480;2024-01-15T05:50:27;0.93;;;0.30;;
21258;SDS011;10787;53.364;-1.480;2024-01-15T05:53:11;3.30;;;0.50;;
21258;SDS011;10787;53.364;-1.480;2024-01-15T05:55:55;2.17;;;0.47;;
21258;SDS011;10787;53.364;-1.480;2024-01-15T05:58:40;2.93;;;0.50;;
21258;SDS011;10787;53.364;-1.480;2024-01-15T06:01:24;3.47;;;0.40;;
21258;SDS011;10787;53.364;-1.480;2024-01-15T06:04:08;1.90;;;0.40;;
21258;SDS011;10787;53.364;-1.480;2024-01-15T06:06:53;1.47;;;0.30;;
21258;SDS011;10787;53.364;-1.480;2024-01-15T06:09:37;2.33;;;0.40;;
21258;SDS011;10787;53.364;-1.480;2024-01-15T06:12:22;1.50;;;0.40;;
21258;SDS011;10787;53.364;-1.480;2024-01-15T06:15:07;1.23;;;0.40;;
21258;SDS011;10787;53.364;-1.480;2024-01-15T06:17:51;1.17;;;0.43;;
21258;SDS011;10787;53.364;-1.480;2024-01-15T06:20:35;1.93;;;0.40;;
21258;SDS011;10787;53.364;-1.480;2024-01-15T06:23:19;1.23;;;0.57;;
21258;SDS011;10787;53.364;-1.480;2024-01-15T06:26:04;3.07;;;0.40;;
21258;SDS011;10787;53.364;-1.480;2024-01-15T06:28:48;2.03;;;0.40;;
21258;SDS011;10787;53.364;-1.480;2024-01-15T06:31:33;1.93;;;0.53;;
21258;SDS011;10787;53.364;-1.480;2024-01-15T06:34:17;1.90;;;0.50;;
21258;SDS011;10787;53.364;-1.480;2024-01-15T06:37:02;1.40;;;0.70;;
21258;SDS011;10787;53.364;-1.480;2024-01-15T06:39:46;1.47;;;0.40;;
21258;SDS011;10787;53.364;-1.480;2024-01-15T06:42:30;0.70;;;0.40;;
21258;SDS011;10787;53.364;-1.480;2024-01-15T06:45:14;0.40;;;0.30;;
21258;SDS011;10787;53.364;-1.480;2024-01-15T06:47:59;2.23;;;0.50;;
21258;SDS011;10787;53.364;-1.480;2024-01-15T06:50:43;1.33;;;0.50;;
21258;SDS011;10787;53.364;-1.480;2024-01-15T06:53:27;1.83;;;0.30;;
21258;SDS011;10787;53.364;-1.480;2024-01-15T06:56:12;1.53;;;0.63;;
21258;SDS011;10787;53.364;-1.480;2024-01-15T06:58:57;3.70;;;0.57;;
21258;SDS011;10787;53.364;-1.480;2024-01-15T07:01:41;2.43;;;0.70;;
21258;SDS011;10787;53.364;-1.480;2024-01-15T07:04:26;1.63;;;0.57;;
21258;SDS011;10787;53.364;-1.480;2024-01-15T07:07:10;2.17;;;0.60;;
21258;SDS011;10787;53.364;-1.480;2024-01-15T07:09:54;2.40;;;0.80;;
21258;SDS011;10787;53.364;-1.480;2024-01-15T07:12:41;1.60;;;0.60;;
21258;SDS011;10787;53.364;-1.480;2024-01-15T07:15:26;4.17;;;0.50;;
21258;SDS011;10787;53.364;-1.480;2024-01-15T07:18:10;2.43;;;0.70;;
21258;SDS011;10787;53.364;-1.480;2024-01-15T07:20:54;1.50;;;0.60;;
21258;SDS011;10787;53.364;-1.480;2024-01-15T07:23:39;3.37;;;0.73;;
21258;SDS011;10787;53.364;-1.480;2024-01-15T07:26:23;4.50;;;0.80;;
21258;SDS011;10787;53.364;-1.480;2024-01-15T07:29:08;1.10;;;0.50;;
21258;SDS011;10787;53.364;-1.480;2024-01-15T07:31:52;1.23;;;0.60;;
21258;SDS011;10787;53.364;-1.480;2024-01-15T07:34:37;1.97;;;0.70;;
21258;SDS011;10787;53.364;-1.480;2024-01-15T07:37:21;1.07;;;0.60;;
21258;SDS011;10787;53.364;-1.480;2024-01-15T07:40:07;3.63;;;0.63;;
21258;SDS011;10787;53.364;-1.480;2024-01-15T07:42:52;3.93;;;0.60;;
21258;SDS011;10787;53.364;-1.480;2024-01-15T07:45:37;2.30;;;0.70;;
21258;SDS011;10787;53.364;-1.480;2024-01-15T07:48:21;2.57;;;0.60;;
21258;SDS011;10787;53.364;-1.480;2024-01-15T07:51:06;2.83;;;0.80;;
21258;SDS011;10787;53.364;-1.480;2024-01-15T07:53:52;2.03;;;0.70;;
21258;SDS011;10787;53.364;-1.480;2024-01-15T07:57:01;1.77;;;0.67;;
21258;SDS011;10787;53.364;-1.480;2024-01-15T07:59:49;2.10;;;0.80;;
21258;SDS011;10787;53.364;-1.480;2024-01-15T08:02:33;2.27;;;0.60;;
21258;SDS011;10787;53.364;-1.480;2024-01-15T08:05:17;2.13;;;0.77;;
21258;SDS011;10787;53.364;-1.480;2024-01-15T08:08:01;2.60;;;1.00;;
21258;SDS011;10787;53.364;-1.480;2024-01-15T08:10:46;1.80;;;0.70;;
21258;SDS011;10787;53.364;-1.480;2024-01-15T08:13:30;3.23;;;0.70;;
21258;SDS011;10787;53.364;-1.480;2024-01-15T08:16:15;2.57;;;0.70;;
21258;SDS011;10787;53.364;-1.480;2024-01-15T08:18:59;3.83;;;0.93;;
21258;SDS011;10787;53.364;-1.480;2024-01-15T08:21:44;2.13;;;0.77;;
21258;SDS011;10787;53.364;-1.480;2024-01-15T08:24:28;2.17;;;0.80;;
21258;SDS011;10787;53.364;-1.480;2024-01-15T08:27:12;3.10;;;0.87;;
21258;SDS011;10787;53.364;-1.480;2024-01-15T08:29:56;2.70;;;0.70;;
21258;SDS011;10787;53.364;-1.480;2024-01-15T08:32:41;4.37;;;0.87;;
21258;SDS011;10787;53.364;-1.480;2024-01-15T08:35:26;2.93;;;1.03;;
21258;SDS011;10787;53.364;-1.480;2024-01-15T08:38:10;3.37;;;0.90;;
21258;SDS011;10787;53.364;-1.480;2024-01-15T08:40:54;2.20;;;0.80;;
21258;SDS011;10787;53.364;-1.480;2024-01-15T08:43:42;3.40;;;0.83;;
21258;SDS011;10787;53.364;-1.480;2024-01-15T08:46:27;4.30;;;0.80;;
21258;SDS011;10787;53.364;-1.480;2024-01-15T08:49:11;1.97;;;0.60;;
21258;SDS011;10787;53.364;-1.480;2024-01-15T08:51:56;2.37;;;0.80;;
21258;SDS011;10787;53.364;-1.480;2024-01-15T08:54:40;1.37;;;0.87;;
21258;SDS011;10787;53.364;-1.480;2024-01-15T08:57:24;2.30;;;0.70;;
21258;SDS011;10787;53.364;-1.480;2024-01-15T09:00:09;2.97;;;0.60;;
21258;SDS011;10787;53.364;-1.480;2024-01-15T09:02:55;3.10;;;0.70;;
21258;SDS011;10787;53.364;-1.480;2024-01-15T09:05:43;2.20;;;0.80;;
21258;SDS011;10787;53.364;-1.480;2024-01-15T09:08:27;4.13;;;0.70;;
21258;SDS011;10787;53.364;-1.480;2024-01-15T09:11:11;3.37;;;0.90;;
21258;SDS011;10787;53.364;-1.480;2024-01-15T09:13:56;6.07;;;0.90;;
21258;SDS011;10787;53.364;-1.480;2024-01-15T09:16:41;2.23;;;0.70;;
21258;SDS011;10787;53.364;-1.480;2024-01-15T09:19:42;3.60;;;1.00;;
21258;SDS011;10787;53.364;-1.480;2024-01-15T09:22:27;2.57;;;0.60;;
21258;SDS011;10787;53.364;-1.480;2024-01-15T09:25:11;2.87;;;1.00;;
21258;SDS011;10787;53.364;-1.480;2024-01-15T09:27:55;2.50;;;1.10;;
21258;SDS011;10787;53.364;-1.480;2024-01-15T09:30:39;4.77;;;0.90;;
21258;SDS011;10787;53.364;-1.480;2024-01-15T09:33:23;2.73;;;0.83;;
21258;SDS011;10787;53.364;-1.480;2024-01-15T09:36:08;3.40;;;0.93;;
21258;SDS011;10787;53.364;-1.480;2024-01-15T09:38:52;2.70;;;0.90;;
21258;SDS011;10787;53.364;-1.480;2024-01-15T09:41:37;1.57;;;0.70;;
21258;SDS011;10787;53.364;-1.480;2024-01-15T09:44:21;2.07;;;0.80;;
21258;SDS011;10787;53.364;-1.480;2024-01-15T09:47:06;2.87;;;0.80;;
21258;SDS011;10787;53.364;-1.480;2024-01-15T09:49:51;3.07;;;0.70;;
21258;SDS011;10787;53.364;-1.480;2024-01-15T09:52:35;2.77;;;0.70;;
21258;SDS011;10787;53.364;-1.480;2024-01-15T09:55:20;3.83;;;0.70;;
21258;SDS011;10787;53.364;-1.480;2024-01-15T09:58:05;3.33;;;0.93;;
21258;SDS011;10787;53.364;-1.480;2024-01-15T10:00:49;4.83;;;1.70;;
21258;SDS011;10787;53.364;-1.480;2024-01-15T10:03:35;3.47;;;0.80;;
21258;SDS011;10787;53.364;-1.480;2024-01-15T10:06:20;5.47;;;1.33;;
21258;SDS011;10787;53.364;-1.480;2024-01-15T10:09:05;2.67;;;1.10;;
21258;SDS011;10787;53.364;-1.480;2024-01-15T10:11:51;2.37;;;0.90;;
21258;SDS011;10787;53.364;-1.480;2024-01-15T10:14:35;3.70;;;0.80;;
21258;SDS011;10787;53.364;-1.480;2024-01-15T10:17:19;7.53;;;2.37;;
21258;SDS011;10787;53.364;-1.480;2024-01-15T10:20:11;7.47;;;0.90;;
21258;SDS011;10787;53.364;-1.480;2024-01-15T10:22:56;6.87;;;0.97;;
21258;SDS011;10787;53.364;-1.480;2024-01-15T10:25:43;5.67;;;0.93;;
21258;SDS011;10787;53.364;-1.480;2024-01-15T10:28:28;4.53;;;0.97;;
21258;SDS011;10787;53.364;-1.480;2024-01-15T10:31:14;3.70;;;1.00;;
21258;SDS011;10787;53.364;-1.480;2024-01-15T10:34:09;5.23;;;1.23;;
21258;SDS011;10787;53.364;-1.480;2024-01-15T10:36:59;3.63;;;0.90;;
21258;SDS011;10787;53.364;-1.480;2024-01-15T10:39:43;2.40;;;0.80;;
21258;SDS011;10787;53.364;-1.480;2024-01-15T10:42:29;2.87;;;0.90;;
21258;SDS011;10787;53.364;-1.480;2024-01-15T10:45:14;3.93;;;0.90;;
21258;SDS011;10787;53.364;-1.480;2024-01-15T10:47:58;2.97;;;0.87;;
21258;SDS011;10787;53.364;-1.480;2024-01-15T10:50:44;1.97;;;0.70;;
21258;SDS011;10787;53.364;-1.480;2024-01-15T10:53:29;4.17;;;0.83;;
21258;SDS011;10787;53.364;-1.480;2024-01-15T10:56:16;3.00;;;0.87;;
21258;SDS011;10787;53.364;-1.480;2024-01-15T10:59:02;6.83;;;0.90;;
21258;SDS011;10787;53.364;-1.480;2024-01-15T11:01:47;2.10;;;0.70;;
21258;SDS011;10787;53.364;-1.480;2024-01-15T11:04:32;4.00;;;0.80;;
21258;SDS011;10787;53.364;-1.480;2024-01-15T11:07:17;4.27;;;0.80;;
21258;SDS011;10787;53.364;-1.480;2024-01-15T11:10:07;2.07;;;0.80;;
21258;SDS011;10787;53.364;-1.480;2024-01-15T11:12:54;4.00;;;0.80;;
21258;SDS011;10787;53.364;-1.480;2024-01-15T11:15:55;1.83;;;0.70;;
21258;SDS011;10787;53.364;-1.480;2024-01-15T11:21:42;2.10;;;0.60;;
21258;SDS011;10787;53.364;-1.480;2024-01-15T11:24:33;2.87;;;0.70;;
21258;SDS011;10787;53.364;-1.480;2024-01-15T11:30:25;5.67;;;0.90;;
21258;SDS011;10787;53.364;-1.480;2024-01-15T11:33:32;4.63;;;0.90;;
21258;SDS011;10787;53.364;-1.480;2024-01-15T11:36:18;2.93;;;0.80;;
21258;SDS011;10787;53.364;-1.480;2024-01-15T11:39:29;5.97;;;0.83;;
21258;SDS011;10787;53.364;-1.480;2024-01-15T11:42:12;4.53;;;0.90;;
21258;SDS011;10787;53.364;-1.480;2024-01-15T11:44:57;3.80;;;0.80;;
21258;SDS011;10787;53.364;-1.480;2024-01-15T11:50:55;1.70;;;0.80;;
21258;SDS011;10787;53.364;-1.480;2024-01-15T11:53:48;1.60;;;0.70;;
21258;SDS011;10787;53.364;-1.480;2024-01-15T11:56:36;3.10;;;0.80;;
21258;SDS011;10787;53.364;-1.480;2024-01-15T11:59:20;4.97;;;0.97;;
21258;SDS011;10787;53.364;-1.480;2024-01-15T12:02:04;2.47;;;0.90;;
21258;SDS011;10787;53.364;-1.480;2024-01-15T12:04:49;3.57;;;1.00;;
21258;SDS011;10787;53.364;-1.480;2024-01-15T12:07:33;3.17;;;0.90;;
21258;SDS011;10787;53.364;-1.480;2024-01-15T12:10:19;3.07;;;0.70;;
21258;SDS011;10787;53.364;-1.480;2024-01-15T12:15:56;3.60;;;0.90;;
21258;SDS011;10787;53.364;-1.480;2024-01-15T12:18:41;2.10;;;0.80;;
21258;SDS011;10787;53.364;-1.480;2024-01-15T12:21:29;2.72;;;0.98;;
21258;SDS011;10787;53.364;-1.480;2024-01-15T12:24:13;5.60;;;0.90;;
21258;SDS011;10787;53.364;-1.480;2024-01-15T12:26:58;3.80;;;1.05;;
21258;SDS011;10787;53.364;-1.480;2024-01-15T12:29:43;3.63;;;1.10;;
21258;SDS011;10787;53.364;-1.480;2024-01-15T12:32:27;3.35;;;0.90;;
21258;SDS011;10787;53.364;-1.480;2024-01-15T12:35:13;2.50;;;0.90;;
21258;SDS011;10787;53.364;-1.480;2024-01-15T12:38:01;3.00;;;1.10;;
21258;SDS011;10787;53.364;-1.480;2024-01-15T12:40:46;3.17;;;1.00;;
21258;SDS011;10787;53.364;-1.480;2024-01-15T12:43:31;2.08;;;0.90;;
21258;SDS011;10787;53.364;-1.480;2024-01-15T12:46:16;3.42;;;0.70;;
21258;SDS011;10787;53.364;-1.480;2024-01-15T12:49:03;2.03;;;0.98;;
21258;SDS011;10787;53.364;-1.480;2024-01-15T12:51:56;2.15;;;0.70;;
21258;SDS011;10787;53.364;-1.480;2024-01-15T12:54:41;2.20;;;0.85;;
21258;SDS011;10787;53.364;-1.480;2024-01-15T12:57:26;2.50;;;0.90;;
21258;SDS011;10787;53.364;-1.480;2024-01-15T13:00:11;3.47;;;1.02;;
21258;SDS011;10787;53.364;-1.480;2024-01-15T13:02:56;2.63;;;1.00;;
21258;SDS011;10787;53.364;-1.480;2024-01-15T13:05:41;1.90;;;0.80;;
21258;SDS011;10787;53.364;-1.480;2024-01-15T13:08:25;2.30;;;1.00;;
21258;SDS011;10787;53.364;-1.480;2024-01-15T13:11:12;2.88;;;1.10;;
21258;SDS011;10787;53.364;-1.480;2024-01-15T13:13:56;3.25;;;1.30;;
21258;SDS011;10787;53.364;-1.480;2024-01-15T13:16:41;2.45;;;0.90;;
21258;SDS011;10787;53.364;-1.480;2024-01-15T13:19:26;2.00;;;1.08;;
21258;SDS011;10787;53.364;-1.480;2024-01-15T13:22:11;3.35;;;1.40;;
21258;SDS011;10787;53.364;-1.480;2024-01-15T13:24:57;3.15;;;1.20;;
21258;SDS011;10787;53.364;-1.480;2024-01-15T13:27:42;2.90;;;1.25;;
21258;SDS011;10787;53.364;-1.480;2024-01-15T13:30:26;2.72;;;1.17;;
21258;SDS011;10787;53.364;-1.480;2024-01-15T13:33:11;4.22;;;1.20;;
21258;SDS011;10787;53.364;-1.480;2024-01-15T13:35:55;7.00;;;1.20;;
21258;SDS011;10787;53.364;-1.480;2024-01-15T13:38:39;1.92;;;1.20;;
21258;SDS011;10787;53.364;-1.480;2024-01-15T13:41:25;4.05;;;1.50;;
21258;SDS011;10787;53.364;-1.480;2024-01-15T13:44:10;4.50;;;1.70;;
21258;SDS011;10787;53.364;-1.480;2024-01-15T13:46:55;9.25;;;3.72;;
21258;SDS011;10787;53.364;-1.480;2024-01-15T13:49:41;2.92;;;1.13;;
21258;SDS011;10787;53.364;-1.480;2024-01-15T13:52:25;3.95;;;0.93;;
21258;SDS011;10787;53.364;-1.480;2024-01-15T13:55:09;2.13;;;0.90;;
21258;SDS011;10787;53.364;-1.480;2024-01-15T13:57:53;3.42;;;1.10;;
21258;SDS011;10787;53.364;-1.480;2024-01-15T14:00:38;3.10;;;1.20;;
21258;SDS011;10787;53.364;-1.480;2024-01-15T14:03:22;4.35;;;1.30;;
21258;SDS011;10787;53.364;-1.480;2024-01-15T14:06:07;3.55;;;1.60;;
21258;SDS011;10787;53.364;-1.480;2024-01-15T14:08:52;3.00;;;1.40;;
21258;SDS011;10787;53.364;-1.480;2024-01-15T14:11:36;3.42;;;1.30;;
21258;SDS011;10787;53.364;-1.480;2024-01-15T14:14:21;6.70;;;1.27;;
21258;SDS011;10787;53.364;-1.480;2024-01-15T14:17:05;5.15;;;1.30;;
21258;SDS011;10787;53.364;-1.480;2024-01-15T14:19:50;2.42;;;0.80;;
21258;SDS011;10787;53.364;-1.480;2024-01-15T14:22:34;3.50;;;1.20;;
21258;SDS011;10787;53.364;-1.480;2024-01-15T14:25:18;3.28;;;1.00;;
21258;SDS011;10787;53.364;-1.480;2024-01-15T14:28:04;4.63;;;1.05;;
21258;SDS011;10787;53.364;-1.480;2024-01-15T14:30:48;3.03;;;1.13;;
21258;SDS011;10787;53.364;-1.480;2024-01-15T14:33:32;3.45;;;1.20;;
21258;SDS011;10787;53.364;-1.480;2024-01-15T14:36:17;3.72;;;1.00;;
21258;SDS011;10787;53.364;-1.480;2024-01-15T14:39:02;2.50;;;1.27;;
21258;SDS011;10787;53.364;-1.480;2024-01-15T14:41:46;2.97;;;1.13;;
21258;SDS011;10787;53.364;-1.480;2024-01-15T14:44:31;4.13;;;1.00;;
21258;SDS011;10787;53.364;-1.480;2024-01-15T14:47:17;1.83;;;0.93;;
21258;SDS011;10787;53.364;-1.480;2024-01-15T14:50:03;4.13;;;1.17;;
21258;SDS011;10787;53.364;-1.480;2024-01-15T14:52:49;4.63;;;1.10;;
21258;SDS011;10787;53.364;-1.480;2024-01-15T14:55:33;2.85;;;1.00;;
21258;SDS011;10787;53.364;-1.480;2024-01-15T14:58:18;2.55;;;1.00;;
21258;SDS011;10787;53.364;-1.480;2024-01-15T15:01:02;1.85;;;0.80;;
21258;SDS011;10787;53.364;-1.480;2024-01-15T15:03:46;1.73;;;0.77;;
21258;SDS011;10787;53.364;-1.480;2024-01-15T15:06:31;2.75;;;1.00;;
21258;SDS011;10787;53.364;-1.480;2024-01-15T15:09:16;3.20;;;1.20;;
21258;SDS011;10787;53.364;-1.480;2024-01-15T15:12:00;3.85;;;1.02;;
21258;SDS011;10787;53.364;-1.480;2024-01-15T15:14:46;3.05;;;1.10;;
21258;SDS011;10787;53.364;-1.480;2024-01-15T15:17:30;2.95;;;1.05;;
21258;SDS011;10787;53.364;-1.480;2024-01-15T15:20:14;2.13;;;1.00;;
21258;SDS011;10787;53.364;-1.480;2024-01-15T15:22:59;3.35;;;1.20;;
21258;SDS011;10787;53.364;-1.480;2024-01-15T15:25:43;3.47;;;1.33;;
21258;SDS011;10787;53.364;-1.480;2024-01-15T15:28:28;4.60;;;1.20;;
21258;SDS011;10787;53.364;-1.480;2024-01-15T15:31:12;3.35;;;1.50;;
21258;SDS011;10787;53.364;-1.480;2024-01-15T15:33:57;3.13;;;1.60;;
21258;SDS011;10787;53.364;-1.480;2024-01-15T15:36:41;1.80;;;1.10;;
21258;SDS011;10787;53.364;-1.480;2024-01-15T15:39:26;4.00;;;1.43;;
21258;SDS011;10787;53.364;-1.480;2024-01-15T15:42:10;3.37;;;1.40;;
21258;SDS011;10787;53.364;-1.480;2024-01-15T15:44:54;7.03;;;1.80;;
21258;SDS011;10787;53.364;-1.480;2024-01-15T15:47:40;4.20;;;1.30;;
21258;SDS011;10787;53.364;-1.480;2024-01-15T15:50:25;3.60;;;1.47;;
21258;SDS011;10787;53.364;-1.480;2024-01-15T15:53:10;2.67;;;1.30;;
21258;SDS011;10787;53.364;-1.480;2024-01-15T15:55:55;2.20;;;1.17;;
21258;SDS011;10787;53.364;-1.480;2024-01-15T15:58:39;5.67;;;1.87;;
21258;SDS011;10787;53.364;-1.480;2024-01-15T16:01:23;4.50;;;1.87;;
21258;SDS011;10787;53.364;-1.480;2024-01-15T16:04:08;9.60;;;3.10;;
21258;SDS011;10787;53.364;-1.480;2024-01-15T16:06:52;5.47;;;1.80;;
21258;SDS011;10787;53.364;-1.480;2024-01-15T16:09:37;7.10;;;1.50;;
21258;SDS011;10787;53.364;-1.480;2024-01-15T16:12:23;2.17;;;1.27;;
21258;SDS011;10787;53.364;-1.480;2024-01-15T16:15:16;4.87;;;1.67;;
21258;SDS011;10787;53.364;-1.480;2024-01-15T16:18:01;5.27;;;1.60;;
21258;SDS011;10787;53.364;-1.480;2024-01-15T16:20:46;5.77;;;2.10;;
21258;SDS011;10787;53.364;-1.480;2024-01-15T16:23:31;5.63;;;2.30;;
21258;SDS011;10787;53.364;-1.480;2024-01-15T16:26:15;4.67;;;1.70;;
21258;SDS011;10787;53.364;-1.480;2024-01-15T16:28:59;4.17;;;1.60;;
21258;SDS011;10787;53.364;-1.480;2024-01-15T16:31:43;4.63;;;1.97;;